createdAt,value
2019-01-26T00:02:09.741Z,98876.95
2019-01-26T00:04:40.070Z,98884.02
2019-01-26T00:07:10.537Z,98880.69
2019-01-26T00:09:39.609Z,98880.16
2019-01-26T00:12:08.737Z,98892.00
2019-01-26T00:15:13.189Z,98878.97
2019-01-26T00:17:42.248Z,98862.92
2019-01-26T00:20:11.308Z,98843.00
2019-01-26T00:22:40.449Z,98840.81
2019-01-26T00:25:09.558Z,98845.52
2019-01-26T00:27:40.369Z,98841.72
2019-01-26T00:30:10.790Z,98851.16
2019-01-26T00:32:39.828Z,98849.95
2019-01-26T00:35:08.947Z,98850.97
2019-01-26T00:37:40.292Z,98858.36
2019-01-26T00:40:09.600Z,98859.23
2019-01-26T00:42:38.653Z,98853.95
2019-01-26T00:45:08.402Z,98857.67
2019-01-26T00:47:37.578Z,98851.23
2019-01-26T00:50:06.642Z,98859.99
2019-01-26T00:52:36.872Z,98861.94
2019-01-26T00:55:05.998Z,98865.00
2019-01-26T00:57:35.283Z,98853.66
2019-01-26T01:00:05.542Z,98866.45
2019-01-26T01:02:34.686Z,98862.53
2019-01-26T01:05:05.401Z,98865.19
2019-01-26T01:07:34.523Z,98860.16
2019-01-26T01:10:06.061Z,98854.09
2019-01-26T01:12:38.671Z,98849.95
2019-01-26T01:15:08.781Z,98842.09
2019-01-26T01:17:39.932Z,98843.75
2019-01-26T01:20:09.554Z,98850.05
2019-01-26T01:22:40.030Z,98848.23
2019-01-26T01:25:11.640Z,98841.80
2019-01-26T01:27:40.794Z,98834.15
2019-01-26T01:30:12.347Z,98842.31
2019-01-26T01:32:42.800Z,98836.57
2019-01-26T01:35:13.625Z,98840.76
2019-01-26T01:37:43.805Z,98842.09
2019-01-26T01:40:13.043Z,98844.36
2019-01-26T01:42:43.271Z,98847.48
2019-01-26T01:45:14.815Z,98852.02
2019-01-26T01:47:44.119Z,98846.78
2019-01-26T01:50:13.202Z,98846.20
2019-01-26T01:52:42.447Z,98842.63
2019-01-26T01:55:11.602Z,98848.50
2019-01-26T01:57:40.702Z,98850.77
2019-01-26T02:00:13.517Z,98840.95
2019-01-26T02:02:42.625Z,98839.61
2019-01-26T02:05:11.664Z,98837.83
2019-01-26T02:07:40.786Z,98837.98
2019-01-26T02:10:11.055Z,98835.72
2019-01-26T02:12:40.089Z,98821.64
2019-01-26T02:15:12.274Z,98821.98
2019-01-26T02:17:41.502Z,98821.75
2019-01-26T02:20:12.736Z,98810.19
2019-01-26T02:22:43.376Z,98797.14
2019-01-26T02:25:14.513Z,98801.72
2019-01-26T02:27:43.590Z,98796.70
2019-01-26T02:30:14.758Z,98803.89
2019-01-26T02:32:45.870Z,98803.70
2019-01-26T02:35:15.226Z,98801.06
2019-01-26T02:37:44.326Z,98805.77
2019-01-26T02:40:13.443Z,98809.23
2019-01-26T02:42:42.573Z,98812.18
2019-01-26T02:45:12.701Z,98801.35
2019-01-26T02:47:41.878Z,98793.23
2019-01-26T02:50:14.882Z,98799.70
2019-01-26T02:52:44.033Z,98799.19
2019-01-26T02:55:13.174Z,98787.83
2019-01-26T02:57:42.258Z,98790.84
2019-01-26T03:00:21.404Z,98802.90
2019-01-26T03:02:50.475Z,98801.72
2019-01-26T03:05:19.573Z,98794.25
2019-01-26T03:07:48.572Z,98793.23
2019-01-26T03:10:19.214Z,98786.55
2019-01-26T03:12:48.288Z,98773.97
2019-01-26T03:15:19.229Z,98763.09
2019-01-26T03:17:49.670Z,98770.77
2019-01-26T03:20:18.849Z,98770.84
2019-01-26T03:22:47.922Z,98767.27
2019-01-26T03:25:17.401Z,98768.08
2019-01-26T03:27:46.463Z,98771.06
2019-01-26T03:30:19.258Z,98778.98
2019-01-26T03:32:48.427Z,98776.17
2019-01-26T03:35:17.676Z,98771.88
2019-01-26T03:37:46.789Z,98779.80
2019-01-26T03:40:18.186Z,98770.41
2019-01-26T03:42:49.351Z,98763.02
2019-01-26T03:45:19.479Z,98753.20
2019-01-26T03:47:48.583Z,98756.02
2019-01-26T03:50:17.740Z,98752.75
2019-01-26T03:52:46.779Z,98752.63
2019-01-26T03:55:17.171Z,98746.95
2019-01-26T03:57:46.247Z,98746.88
2019-01-26T04:00:20.355Z,98746.78
2019-01-26T04:02:49.452Z,98749.84
2019-01-26T04:05:20.584Z,98753.49
2019-01-26T04:07:49.634Z,98766.70
2019-01-26T04:10:18.685Z,98768.09
2019-01-26T04:12:47.792Z,98763.34
2019-01-26T04:15:17.351Z,98769.52
2019-01-26T04:17:46.481Z,98761.05
2019-01-26T04:20:17.641Z,98749.86
2019-01-26T04:22:46.753Z,98739.96
2019-01-26T04:25:15.893Z,98741.30
2019-01-26T04:27:45.006Z,98730.07
2019-01-26T04:30:16.308Z,98722.88
2019-01-26T04:32:47.768Z,98714.75
2019-01-26T04:35:16.848Z,98709.59
2019-01-26T04:37:45.924Z,98706.53
2019-01-26T04:40:16.428Z,98693.34
2019-01-26T04:42:45.522Z,98691.45
2019-01-26T04:45:17.070Z,98688.10
2019-01-26T04:47:46.206Z,98693.91
2019-01-26T04:50:16.018Z,98696.61
2019-01-26T04:52:47.350Z,98699.59
2019-01-26T04:55:18.003Z,98712.67
2019-01-26T04:57:47.155Z,98709.11
2019-01-26T05:00:34.489Z,98710.98
2019-01-26T05:03:03.613Z,98710.54
2019-01-26T05:05:34.688Z,98700.84
2019-01-26T05:08:05.839Z,98711.84
2019-01-26T05:10:34.983Z,98715.31
2019-01-26T05:13:04.166Z,98718.63
2019-01-26T05:15:34.519Z,98711.84
2019-01-26T05:18:03.574Z,98709.14
2019-01-26T05:20:32.625Z,98709.14
2019-01-26T05:23:01.776Z,98700.52
2019-01-26T05:25:30.880Z,98705.22
2019-01-26T05:27:59.984Z,98705.67
2019-01-26T05:30:29.995Z,98702.69
2019-01-26T05:33:01.224Z,98711.10
2019-01-26T05:35:30.310Z,98709.05
2019-01-26T05:37:59.377Z,98708.20
2019-01-26T05:40:28.454Z,98710.46
2019-01-26T05:42:59.191Z,98713.43
2019-01-26T05:45:28.234Z,98723.70
2019-01-26T05:47:57.650Z,98721.66
2019-01-26T05:50:27.254Z,98725.58
2019-01-26T05:52:56.318Z,98718.59
2019-01-26T05:55:25.549Z,98714.75
2019-01-26T05:57:54.623Z,98706.35
2019-01-26T06:00:28.568Z,98714.38
2019-01-26T06:02:59.077Z,98717.73
2019-01-26T06:05:28.152Z,98713.15
2019-01-26T06:07:59.096Z,98715.56
2019-01-26T06:10:29.477Z,98712.89
2019-01-26T06:12:58.936Z,98711.20
2019-01-26T06:15:28.210Z,98707.36
2019-01-26T06:17:57.655Z,98720.55
2019-01-26T06:20:26.741Z,98716.62
2019-01-26T06:22:55.873Z,98720.17
2019-01-26T06:25:29.027Z,98723.06
2019-01-26T06:27:58.194Z,98733.36
2019-01-26T06:30:27.505Z,98732.88
2019-01-26T06:32:56.603Z,98737.27
2019-01-26T06:35:25.752Z,98728.03
2019-01-26T06:37:54.870Z,98727.46
2019-01-26T06:40:24.022Z,98720.17
2019-01-26T06:42:55.385Z,98721.00
2019-01-26T06:45:26.207Z,98718.39
2019-01-26T06:48:01.897Z,98722.50
2019-01-26T06:50:27.901Z,98729.14
2019-01-26T06:52:58.065Z,98726.52
2019-01-26T06:55:27.160Z,98736.25
2019-01-26T06:57:56.221Z,98727.08
2019-01-26T07:00:29.383Z,98724.67
2019-01-26T07:02:59.877Z,98725.22
2019-01-26T07:05:38.204Z,98720.63
2019-01-26T07:08:07.619Z,98730.45
2019-01-26T07:10:38.332Z,98732.42
2019-01-26T07:13:08.587Z,98736.34
2019-01-26T07:15:37.695Z,98742.69
2019-01-26T07:18:09.516Z,98749.34
2019-01-26T07:20:38.573Z,98745.80
2019-01-26T07:23:09.130Z,98735.67
2019-01-26T07:25:40.307Z,98733.25
2019-01-26T07:28:09.375Z,98733.36
2019-01-26T07:30:38.526Z,98735.86
2019-01-26T07:33:09.360Z,98737.55
2019-01-26T07:35:38.589Z,98739.31
2019-01-26T07:38:13.541Z,98735.86
2019-01-26T07:40:39.396Z,98742.96
2019-01-26T07:43:10.332Z,98741.00
2019-01-26T07:45:39.533Z,98751.19
2019-01-26T07:48:08.991Z,98741.09
2019-01-26T07:50:38.052Z,98743.74
2019-01-26T07:53:07.205Z,98743.63
2019-01-26T07:55:36.289Z,98743.33
2019-01-26T07:58:05.456Z,98748.22
2019-01-26T08:00:36.147Z,98746.14
2019-01-26T08:03:05.249Z,98743.78
2019-01-26T08:05:36.493Z,98738.47
2019-01-26T08:08:05.577Z,98734.99
2019-01-26T08:10:34.636Z,98732.84
2019-01-26T08:13:05.814Z,98728.84
2019-01-26T08:15:36.830Z,98725.84
2019-01-26T08:18:07.709Z,98712.36
2019-01-26T08:20:36.917Z,98708.09
2019-01-26T08:23:07.257Z,98708.36
2019-01-26T08:25:36.363Z,98710.84
2019-01-26T08:28:05.412Z,98706.89
2019-01-26T08:30:38.352Z,98702.52
2019-01-26T08:33:08.651Z,98705.94
2019-01-26T08:35:40.888Z,98709.80
2019-01-26T08:38:11.149Z,98695.77
2019-01-26T08:40:40.251Z,98686.71
2019-01-26T08:43:10.669Z,98683.77
2019-01-26T08:45:39.859Z,98676.39
2019-01-26T08:48:08.963Z,98672.26
2019-01-26T08:50:38.099Z,98674.02
2019-01-26T08:53:07.240Z,98678.70
2019-01-26T08:55:36.397Z,98680.28
2019-01-26T08:58:05.480Z,98681.80
2019-01-26T09:00:34.584Z,98681.80
2019-01-26T09:03:19.455Z,98695.67
2019-01-26T09:06:00.581Z,98691.47
2019-01-26T09:08:29.660Z,98696.89
2019-01-26T09:10:58.779Z,98693.14
2019-01-26T09:13:29.524Z,98698.20
2019-01-26T09:15:58.770Z,98700.96
2019-01-26T09:18:38.579Z,98703.26
2019-01-26T09:21:02.651Z,98698.91
2019-01-26T09:23:32.955Z,98702.44
2019-01-26T09:26:02.158Z,98688.88
2019-01-26T09:28:31.354Z,98686.49
2019-01-26T09:31:01.698Z,98689.84
2019-01-26T09:33:33.086Z,98686.23
2019-01-26T09:36:05.654Z,98683.38
2019-01-26T09:38:34.947Z,98673.21
2019-01-26T09:41:04.111Z,98675.81
2019-01-26T09:43:34.185Z,98677.23
2019-01-26T09:46:03.349Z,98679.04
2019-01-26T09:48:32.776Z,98676.24
2019-01-26T09:51:02.657Z,98680.65
2019-01-26T09:53:32.121Z,98676.92
2019-01-26T09:56:01.249Z,98680.50
2019-01-26T09:58:30.528Z,98678.36
2019-01-26T10:01:00.595Z,98675.66
2019-01-26T10:03:29.902Z,98671.91
2019-01-26T10:05:59.203Z,98671.22
2019-01-26T10:08:28.440Z,98669.13
2019-01-26T10:10:59.451Z,98674.78
2019-01-26T10:13:28.626Z,98672.53
2019-01-26T10:15:57.880Z,98669.21
2019-01-26T10:18:27.030Z,98673.84
2019-01-26T10:20:56.427Z,98666.95
2019-01-26T10:23:25.575Z,98663.88
2019-01-26T10:25:54.781Z,98664.72
2019-01-26T10:28:23.863Z,98662.59
2019-01-26T10:30:55.965Z,98654.63
2019-01-26T10:33:25.060Z,98652.62
2019-01-26T10:36:14.268Z,98648.95
2019-01-26T10:38:48.638Z,98647.17
2019-01-26T10:41:53.178Z,98650.22
2019-01-26T10:44:25.917Z,98637.92
2019-01-26T10:46:55.074Z,98631.55
2019-01-26T10:49:25.946Z,98626.40
2019-01-26T10:51:56.646Z,98636.84
2019-01-26T10:54:25.753Z,98633.38
2019-01-26T10:56:55.232Z,98626.72
2019-01-26T10:59:24.483Z,98620.13
2019-01-26T11:01:53.628Z,98628.46
2019-01-26T11:04:22.888Z,98621.97
2019-01-26T11:06:52.095Z,98619.45
2019-01-26T11:09:21.123Z,98618.95
2019-01-26T11:11:52.142Z,98609.89
2019-01-26T11:14:22.416Z,98603.41
2019-01-26T11:16:51.579Z,98605.54
2019-01-26T11:19:20.659Z,98596.52
2019-01-26T11:21:49.744Z,98587.34
2019-01-26T11:24:21.282Z,98592.06
2019-01-26T11:26:50.366Z,98579.61
2019-01-26T11:29:19.662Z,98580.86
2019-01-26T11:31:48.822Z,98578.22
2019-01-26T11:34:19.551Z,98578.81
2019-01-26T11:36:48.708Z,98580.86
2019-01-26T11:39:18.660Z,98576.47
2019-01-26T11:41:47.762Z,98569.62
2019-01-26T11:44:16.940Z,98563.80
2019-01-26T11:46:56.771Z,98571.23
2019-01-26T11:49:25.966Z,98564.19
2019-01-26T11:52:15.817Z,98553.73
2019-01-26T11:55:02.915Z,98549.88
2019-01-26T11:57:34.676Z,98531.52
2019-01-26T12:00:22.043Z,98539.61
2019-01-26T12:03:05.586Z,98523.78
2019-01-26T12:05:53.427Z,98521.20
2019-01-26T12:08:22.549Z,98505.54
2019-01-26T12:10:51.638Z,98505.34
2019-01-26T12:13:20.785Z,98493.53
2019-01-26T12:15:49.877Z,98498.37
2019-01-26T12:18:19.066Z,98496.95
2019-01-26T12:20:48.268Z,98497.31
2019-01-26T12:23:19.431Z,98497.86
2019-01-26T12:25:48.604Z,98492.20
2019-01-26T12:28:17.699Z,98486.39
2019-01-26T12:30:46.920Z,98486.66
2019-01-26T12:33:18.132Z,98476.48
2019-01-26T12:35:47.325Z,98473.27
2019-01-26T12:38:16.340Z,98439.02
2019-01-26T12:40:45.453Z,98468.22
2019-01-26T12:43:16.573Z,98468.78
2019-01-26T12:45:46.662Z,98462.56
2019-01-26T12:48:15.745Z,98460.13
2019-01-26T12:50:44.927Z,98459.33
2019-01-26T12:53:14.049Z,98453.83
2019-01-26T12:55:43.220Z,98450.89
2019-01-26T12:58:12.260Z,98447.20
2019-01-26T13:00:43.239Z,98442.34
2019-01-26T13:03:13.525Z,98442.97
2019-01-26T13:05:42.721Z,98444.88
2019-01-26T13:08:11.879Z,98428.81
2019-01-26T13:10:44.399Z,98432.33
2019-01-26T13:13:13.458Z,98430.20
2019-01-26T13:15:42.565Z,98427.01
2019-01-26T13:18:11.725Z,98427.02
2019-01-26T13:20:43.027Z,98421.79
2019-01-26T13:23:12.084Z,98417.63
2019-01-26T13:25:44.587Z,98419.27
2019-01-26T13:28:14.694Z,98418.70
2019-01-26T13:30:43.838Z,98416.75
2019-01-26T13:33:12.939Z,98411.53
2019-01-26T13:35:44.694Z,98403.76
2019-01-26T13:38:16.840Z,98400.20
2019-01-26T13:40:47.041Z,98404.50
2019-01-26T13:43:16.176Z,98402.22
2019-01-26T13:45:48.429Z,98397.27
2019-01-26T13:48:17.626Z,98389.80
2019-01-26T13:50:46.796Z,98389.56
2019-01-26T13:53:16.251Z,98392.51
2019-01-26T13:55:45.342Z,98381.05
2019-01-26T13:58:14.575Z,98381.54
2019-01-26T14:00:43.640Z,98371.71
2019-01-26T14:03:12.741Z,98374.28
2019-01-26T14:05:43.696Z,98363.17
2019-01-26T14:08:12.854Z,98364.88
2019-01-26T14:10:41.938Z,98372.88
2019-01-26T14:13:11.055Z,98366.27
2019-01-26T14:15:40.249Z,98362.33
2019-01-26T14:18:09.498Z,98357.43
2019-01-26T14:20:40.885Z,98354.83
2019-01-26T14:23:09.992Z,98354.94
2019-01-26T14:25:39.086Z,98351.47
2019-01-26T14:28:08.211Z,98350.39
2019-01-26T14:30:47.197Z,98351.95
2019-01-26T14:33:16.399Z,98346.48
2019-01-26T14:35:46.854Z,98345.38
2019-01-26T14:38:15.987Z,98345.00
2019-01-26T14:40:45.074Z,98332.36
2019-01-26T14:43:14.196Z,98335.48
2019-01-26T14:45:43.369Z,98329.13
2019-01-26T14:48:12.496Z,98330.43
2019-01-26T14:50:41.653Z,98323.53
2019-01-26T14:53:10.780Z,98329.63
2019-01-26T14:55:40.007Z,98318.16
2019-01-26T14:58:09.308Z,98312.06
2019-01-26T15:00:38.438Z,98311.36
2019-01-26T15:03:09.816Z,98306.59
2019-01-26T15:05:38.928Z,98300.25
2019-01-26T15:08:08.132Z,98299.06
2019-01-26T15:10:37.255Z,98293.08
2019-01-26T15:13:08.433Z,98290.70
2019-01-26T15:15:39.574Z,98288.42
2019-01-26T15:18:11.368Z,98291.16
2019-01-26T15:20:41.373Z,98286.99
2019-01-26T15:23:12.409Z,98286.64
2019-01-26T15:25:42.952Z,98283.77
2019-01-26T15:28:12.197Z,98279.47
2019-01-26T15:30:43.106Z,98276.97
2019-01-26T15:33:12.519Z,98267.53
2019-01-26T15:35:41.674Z,98266.70
2019-01-26T15:38:12.053Z,98262.85
2019-01-26T15:40:42.718Z,98253.89
2019-01-26T15:43:11.818Z,98252.35
2019-01-26T15:45:47.773Z,98248.65
2019-01-26T15:48:16.850Z,98243.87
2019-01-26T15:50:46.084Z,98241.72
2019-01-26T15:53:15.194Z,98233.48
2019-01-26T15:55:44.357Z,98229.80
2019-01-26T15:58:13.447Z,98225.00
2019-01-26T16:00:44.379Z,98219.61
2019-01-26T16:03:13.992Z,98214.14
2019-01-26T16:05:43.112Z,98205.63
2019-01-26T16:08:13.318Z,98205.98
2019-01-26T16:10:42.378Z,98207.09
2019-01-26T16:13:11.453Z,98209.45
2019-01-26T16:15:42.976Z,98203.72
2019-01-26T16:18:14.380Z,98202.30
2019-01-26T16:20:43.567Z,98201.83
2019-01-26T16:23:12.609Z,98194.51
2019-01-26T16:25:45.335Z,98190.80
2019-01-26T16:28:14.421Z,98194.65
2019-01-26T16:30:43.478Z,98185.95
2019-01-26T16:33:12.555Z,98174.80
2019-01-26T16:35:42.215Z,98171.81
2019-01-26T16:38:11.322Z,98172.14
2019-01-26T16:40:40.458Z,98170.50
2019-01-26T16:43:09.647Z,98164.16
2019-01-26T16:45:40.874Z,98167.11
2019-01-26T16:48:12.140Z,98158.88
2019-01-26T16:50:42.420Z,98160.38
2019-01-26T16:53:11.782Z,98163.20
2019-01-26T16:55:42.182Z,98158.33
2019-01-26T16:58:11.349Z,98152.22
2019-01-26T17:00:45.781Z,98151.34
2019-01-26T17:03:14.869Z,98149.33
2019-01-26T17:05:45.175Z,98144.75
2019-01-26T17:08:14.305Z,98139.31
2019-01-26T17:10:43.412Z,98131.55
2019-01-26T17:13:12.530Z,98137.06
2019-01-26T17:15:42.869Z,98128.10
2019-01-26T17:18:13.919Z,98127.40
2019-01-26T17:20:43.754Z,98128.80
2019-01-26T17:23:16.327Z,98116.63
2019-01-26T17:25:47.020Z,98115.06
2019-01-26T17:28:17.532Z,98111.40
2019-01-26T17:30:46.767Z,98109.16
2019-01-26T17:33:15.841Z,98104.94
2019-01-26T17:35:44.953Z,98109.00
2019-01-26T17:38:14.043Z,98105.39
2019-01-26T17:40:43.107Z,98110.53
2019-01-26T17:43:12.222Z,98107.80
2019-01-26T17:45:41.274Z,98103.44
2019-01-26T17:48:10.429Z,98101.69
2019-01-26T17:50:42.329Z,98092.36
2019-01-26T17:53:10.428Z,98094.48
2019-01-26T17:55:41.088Z,98078.98
2019-01-26T17:58:10.232Z,98084.70
2019-01-26T18:00:46.385Z,98076.75
2019-01-26T18:03:15.670Z,98082.93
2019-01-26T18:05:45.788Z,98074.23
2019-01-26T18:08:14.831Z,98070.98
2019-01-26T18:10:44.044Z,98071.15
2019-01-26T18:13:13.114Z,98073.37
2019-01-26T18:15:43.851Z,98068.12
2019-01-26T18:18:12.961Z,98056.06
2019-01-26T18:20:42.126Z,98050.07
2019-01-26T18:23:11.571Z,98044.52
2019-01-26T18:25:41.567Z,98045.09
2019-01-26T18:28:10.726Z,98042.74
2019-01-26T18:30:40.974Z,98039.10
2019-01-26T18:33:11.462Z,98029.38
2019-01-26T18:35:42.638Z,98026.52
2019-01-26T18:38:11.765Z,98021.15
2019-01-26T18:40:40.950Z,98017.77
2019-01-26T18:43:10.086Z,98015.77
2019-01-26T18:45:39.426Z,98016.23
2019-01-26T18:48:08.580Z,98008.62
2019-01-26T18:50:39.809Z,98001.66
2019-01-26T18:53:08.885Z,98004.80
2019-01-26T18:55:38.037Z,97998.56
2019-01-26T18:58:07.127Z,97991.14
2019-01-26T19:00:40.257Z,97991.72
2019-01-26T19:03:22.771Z,97981.88
2019-01-26T19:06:02.147Z,97982.00
2019-01-26T19:08:33.853Z,97974.29
2019-01-26T19:11:02.856Z,97970.03
2019-01-26T19:13:32.994Z,97970.34
2019-01-26T19:16:02.091Z,97955.42
2019-01-26T19:18:31.164Z,97951.13
2019-01-26T19:21:03.312Z,97949.08
2019-01-26T19:23:31.098Z,97942.98
2019-01-26T19:26:01.678Z,97941.36
2019-01-26T19:28:30.731Z,97930.64
2019-01-26T19:30:59.869Z,97925.23
2019-01-26T19:33:29.059Z,97922.27
2019-01-26T19:36:00.332Z,97922.56
2019-01-26T19:38:29.373Z,97914.80
2019-01-26T19:40:58.520Z,97900.56
2019-01-26T19:43:27.578Z,97900.86
2019-01-26T19:45:56.732Z,97897.59
2019-01-26T19:48:25.756Z,97899.08
2019-01-26T19:50:56.199Z,97894.08
2019-01-26T19:53:25.500Z,97890.73
2019-01-26T19:55:56.156Z,97882.47
2019-01-26T19:58:25.280Z,97875.45
2019-01-26T20:00:54.355Z,97870.10
2019-01-26T20:03:23.550Z,97879.28
2019-01-26T20:05:52.867Z,97860.88
2019-01-26T20:08:21.938Z,97859.28
2019-01-26T20:10:51.109Z,97852.84
2019-01-26T20:13:22.253Z,97847.17
2019-01-26T20:15:51.393Z,97839.36
2019-01-26T20:18:20.497Z,97836.77
2019-01-26T20:20:51.522Z,97832.56
2019-01-26T20:23:20.725Z,97822.27
2019-01-26T20:25:49.809Z,97818.02
2019-01-26T20:28:19.017Z,97800.28
2019-01-26T20:30:48.078Z,97798.25
2019-01-26T20:33:17.455Z,97793.33
2019-01-26T20:35:46.588Z,97787.92
2019-01-26T20:38:15.689Z,97785.26
2019-01-26T20:40:44.723Z,97783.09
2019-01-26T20:43:13.798Z,97773.66
2019-01-26T20:45:44.989Z,97773.42
2019-01-26T20:48:14.215Z,97774.74
2019-01-26T20:50:43.304Z,97770.41
2019-01-26T20:53:12.498Z,97766.39
2019-01-26T20:55:44.555Z,97763.33
2019-01-26T20:58:13.650Z,97754.08
2019-01-26T21:00:42.784Z,97756.56
2019-01-26T21:03:11.843Z,97737.63
2019-01-26T21:05:41.245Z,97725.24
2019-01-26T21:08:10.362Z,97728.86
2019-01-26T21:10:40.085Z,97713.77
2019-01-26T21:13:16.273Z,97710.06
2019-01-26T21:15:43.139Z,97708.44
2019-01-26T21:18:12.218Z,97702.09
2019-01-26T21:20:42.493Z,97697.17
2019-01-26T21:23:15.359Z,97697.51
2019-01-26T21:25:44.393Z,97691.02
2019-01-26T21:28:13.491Z,97684.07
2019-01-26T21:30:43.929Z,97684.70
2019-01-26T21:33:13.030Z,97680.84
2019-01-26T21:35:45.635Z,97664.98
2019-01-26T21:38:18.179Z,97670.92
2019-01-26T21:40:48.477Z,97679.86
2019-01-26T21:43:17.558Z,97669.34
2019-01-26T21:45:46.674Z,97660.14
2019-01-26T21:48:15.724Z,97654.25
2019-01-26T21:50:44.865Z,97648.17
2019-01-26T21:53:13.929Z,97639.78
2019-01-26T21:55:42.979Z,97637.44
2019-01-26T21:58:14.088Z,97635.58
2019-01-26T22:00:43.167Z,97641.66
2019-01-26T22:03:12.195Z,97627.81
2019-01-26T22:05:41.268Z,97617.66
2019-01-26T22:08:10.431Z,97623.25
2019-01-26T22:10:41.539Z,97610.10
2019-01-26T22:13:10.702Z,97614.53
2019-01-26T22:15:39.899Z,97618.55
2019-01-26T22:18:09.015Z,97608.48
2019-01-26T22:20:38.064Z,97603.77
2019-01-26T22:23:07.371Z,97600.69
2019-01-26T22:25:36.418Z,97593.17
2019-01-26T22:28:05.489Z,97593.06
2019-01-26T22:30:35.404Z,97597.13
2019-01-26T22:33:06.274Z,97586.63
2019-01-26T22:35:35.337Z,97581.23
2019-01-26T22:38:04.391Z,97582.19
2019-01-26T22:40:35.316Z,97574.59
2019-01-26T22:43:04.430Z,97574.56
2019-01-26T22:45:33.800Z,97570.18
2019-01-26T22:48:02.862Z,97562.69
2019-01-26T22:50:32.032Z,97557.37
2019-01-26T22:53:03.535Z,97556.69
2019-01-26T22:55:32.643Z,97550.05
2019-01-26T22:58:03.973Z,97536.52
2019-01-26T23:01:00.858Z,97535.95
2019-01-26T23:03:45.521Z,97531.16
2019-01-26T23:06:35.301Z,97521.41
2019-01-26T23:09:19.909Z,97525.01
2019-01-26T23:12:25.418Z,97511.20
2019-01-26T23:15:31.956Z,97501.37
2019-01-26T23:18:36.128Z,97486.79
2019-01-26T23:21:51.322Z,97486.45
2019-01-26T23:24:44.162Z,97471.72
2019-01-26T23:27:40.499Z,97463.38
2019-01-26T23:30:47.424Z,97452.92
2019-01-26T23:33:26.473Z,97447.27
2019-01-26T23:36:05.899Z,97442.12
2019-01-26T23:38:34.875Z,97428.98
2019-01-26T23:41:06.006Z,97416.94
2019-01-26T23:43:36.353Z,97405.35
2019-01-26T23:46:05.505Z,97398.42
2019-01-26T23:48:34.594Z,97389.02
2019-01-26T23:51:03.714Z,97390.59
2019-01-26T23:53:32.790Z,97383.75
2019-01-26T23:56:01.907Z,97370.73
2019-01-26T23:58:30.939Z,97378.03
